sensor_id;sensor_type;location;lat;lon;timestamp;P1;durP1;ratioP1;P2;durP2;ratioP2
5612;SDS011;63463;53.586;9.928;2023-08-17T00:02:14;3.90;;;2.93;;
5612;SDS011;63463;53.586;9.928;2023-08-17T00:04:45;9.00;;;3.40;;
5612;SDS011;63463;53.586;9.928;2023-08-17T00:07:11;3.80;;;3.20;;
5612;SDS011;63463;53.586;9.928;2023-08-17T00:09:37;7.43;;;3.40;;
5612;SDS011;63463;53.586;9.928;2023-08-17T00:12:03;7.20;;;2.93;;
5612;SDS011;63463;53.586;9.928;2023-08-17T00:14:29;7.90;;;3.30;;
5612;SDS011;63463;53.586;9.928;2023-08-17T00:16:56;4.80;;;3.00;;
5612;SDS011;63463;53.586;9.928;2023-08-17T00:19:22;6.83;;;3.60;;
5612;SDS011;63463;53.586;9.928;2023-08-17T00:21:50;7.90;;;3.30;;
5612;SDS011;63463;53.586;9.928;2023-08-17T00:24:17;4.47;;;3.43;;
5612;SDS011;63463;53.586;9.928;2023-08-17T00:26:43;5.23;;;3.03;;
5612;SDS011;63463;53.586;9.928;2023-08-17T00:29:09;5.20;;;3.00;;
5612;SDS011;63463;53.586;9.928;2023-08-17T00:31:35;8.83;;;3.50;;
5612;SDS011;63463;53.586;9.928;2023-08-17T00:34:05;8.63;;;4.07;;
5612;SDS011;63463;53.586;9.928;2023-08-17T00:36:31;3.70;;;2.97;;
5612;SDS011;63463;53.586;9.928;2023-08-17T00:38:57;7.43;;;3.23;;
5612;SDS011;63463;53.586;9.928;2023-08-17T00:41:23;5.90;;;3.33;;
5612;SDS011;63463;53.586;9.928;2023-08-17T00:43:49;8.50;;;4.00;;
5612;SDS011;63463;53.586;9.928;2023-08-17T00:46:15;13.33;;;3.17;;
5612;SDS011;63463;53.586;9.928;2023-08-17T00:48:41;11.07;;;3.43;;
5612;SDS011;63463;53.586;9.928;2023-08-17T00:51:08;6.27;;;3.77;;
5612;SDS011;63463;53.586;9.928;2023-08-17T00:53:34;10.03;;;3.53;;
5612;SDS011;63463;53.586;9.928;2023-08-17T00:56:01;10.37;;;3.63;;
5612;SDS011;63463;53.586;9.928;2023-08-17T00:58:27;6.93;;;4.20;;
5612;SDS011;63463;53.586;9.928;2023-08-17T01:00:53;5.20;;;2.90;;
5612;SDS011;63463;53.586;9.928;2023-08-17T01:03:22;3.40;;;2.97;;
5612;SDS011;63463;53.586;9.928;2023-08-17T01:05:50;8.83;;;3.30;;
5612;SDS011;63463;53.586;9.928;2023-08-17T01:08:16;6.47;;;3.80;;
5612;SDS011;63463;53.586;9.928;2023-08-17T01:13:12;3.63;;;3.27;;
5612;SDS011;63463;53.586;9.928;2023-08-17T01:15:40;7.27;;;3.60;;
5612;SDS011;63463;53.586;9.928;2023-08-17T01:20:41;5.27;;;3.37;;
5612;SDS011;63463;53.586;9.928;2023-08-17T01:23:09;5.07;;;3.20;;
5612;SDS011;63463;53.586;9.928;2023-08-17T01:25:35;5.70;;;3.00;;
5612;SDS011;63463;53.586;9.928;2023-08-17T01:28:02;9.77;;;3.13;;
5612;SDS011;63463;53.586;9.928;2023-08-17T01:30:28;4.23;;;3.40;;
5612;SDS011;63463;53.586;9.928;2023-08-17T01:35:30;6.47;;;3.50;;
5612;SDS011;63463;53.586;9.928;2023-08-17T01:37:59;10.73;;;3.50;;
5612;SDS011;63463;53.586;9.928;2023-08-17T01:40:26;6.10;;;3.20;;
5612;SDS011;63463;53.586;9.928;2023-08-17T01:42:54;8.43;;;3.57;;
5612;SDS011;63463;53.586;9.928;2023-08-17T01:45:21;9.07;;;3.13;;
5612;SDS011;63463;53.586;9.928;2023-08-17T01:47:48;6.23;;;3.33;;
5612;SDS011;63463;53.586;9.928;2023-08-17T01:50:15;3.50;;;2.67;;
5612;SDS011;63463;53.586;9.928;2023-08-17T01:52:41;8.90;;;3.50;;
5612;SDS011;63463;53.586;9.928;2023-08-17T01:55:07;11.40;;;3.40;;
5612;SDS011;63463;53.586;9.928;2023-08-17T01:57:34;10.17;;;3.57;;
5612;SDS011;63463;53.586;9.928;2023-08-17T02:00:06;4.53;;;3.27;;
5612;SDS011;63463;53.586;9.928;2023-08-17T02:02:38;13.53;;;3.80;;
5612;SDS011;63463;53.586;9.928;2023-08-17T02:05:04;12.03;;;3.77;;
5612;SDS011;63463;53.586;9.928;2023-08-17T02:07:31;6.27;;;3.40;;
5612;SDS011;63463;53.586;9.928;2023-08-17T02:09:57;9.63;;;4.33;;
5612;SDS011;63463;53.586;9.928;2023-08-17T02:12:23;5.67;;;3.53;;
5612;SDS011;63463;53.586;9.928;2023-08-17T02:14:49;6.77;;;3.50;;
5612;SDS011;63463;53.586;9.928;2023-08-17T02:17:24;3.57;;;3.37;;
5612;SDS011;63463;53.586;9.928;2023-08-17T02:19:50;5.73;;;3.37;;
5612;SDS011;63463;53.586;9.928;2023-08-17T02:22:16;11.23;;;3.30;;
5612;SDS011;63463;53.586;9.928;2023-08-17T02:24:46;7.33;;;3.10;;
5612;SDS011;63463;53.586;9.928;2023-08-17T02:27:12;6.03;;;2.83;;
5612;SDS011;63463;53.586;9.928;2023-08-17T02:29:39;9.77;;;3.33;;
5612;SDS011;63463;53.586;9.928;2023-08-17T02:32:05;6.23;;;3.33;;
5612;SDS011;63463;53.586;9.928;2023-08-17T02:34:31;3.23;;;3.00;;
5612;SDS011;63463;53.586;9.928;2023-08-17T02:36:57;10.97;;;3.27;;
5612;SDS011;63463;53.586;9.928;2023-08-17T02:39:24;5.10;;;3.83;;
5612;SDS011;63463;53.586;9.928;2023-08-17T02:41:51;4.40;;;3.03;;
5612;SDS011;63463;53.586;9.928;2023-08-17T02:44:18;4.93;;;3.10;;
5612;SDS011;63463;53.586;9.928;2023-08-17T02:46:46;6.10;;;3.60;;
5612;SDS011;63463;53.586;9.928;2023-08-17T02:49:13;10.17;;;3.03;;
5612;SDS011;63463;53.586;9.928;2023-08-17T02:51:39;10.53;;;3.00;;
5612;SDS011;63463;53.586;9.928;2023-08-17T02:54:05;7.33;;;3.13;;
5612;SDS011;63463;53.586;9.928;2023-08-17T02:56:33;3.73;;;2.83;;
5612;SDS011;63463;53.586;9.928;2023-08-17T02:58:59;6.60;;;3.10;;
5612;SDS011;63463;53.586;9.928;2023-08-17T03:01:25;8.83;;;2.90;;
5612;SDS011;63463;53.586;9.928;2023-08-17T03:03:55;10.00;;;3.30;;
5612;SDS011;63463;53.586;9.928;2023-08-17T03:06:21;3.20;;;2.90;;
5612;SDS011;63463;53.586;9.928;2023-08-17T03:08:47;4.07;;;3.07;;
5612;SDS011;63463;53.586;9.928;2023-08-17T03:11:13;2.97;;;2.77;;
5612;SDS011;63463;53.586;9.928;2023-08-17T03:13:39;4.63;;;3.20;;
5612;SDS011;63463;53.586;9.928;2023-08-17T03:16:05;4.43;;;2.93;;
5612;SDS011;63463;53.586;9.928;2023-08-17T03:18:31;3.30;;;3.10;;
5612;SDS011;63463;53.586;9.928;2023-08-17T03:20:57;3.60;;;2.60;;
5612;SDS011;63463;53.586;9.928;2023-08-17T03:23:23;5.17;;;2.83;;
5612;SDS011;63463;53.586;9.928;2023-08-17T03:25:52;4.27;;;3.30;;
5612;SDS011;63463;53.586;9.928;2023-08-17T03:28:19;3.07;;;2.60;;
5612;SDS011;63463;53.586;9.928;2023-08-17T03:30:45;10.00;;;3.30;;
5612;SDS011;63463;53.586;9.928;2023-08-17T03:33:11;5.20;;;3.10;;
5612;SDS011;63463;53.586;9.928;2023-08-17T03:35:37;5.40;;;2.83;;
5612;SDS011;63463;53.586;9.928;2023-08-17T03:38:03;4.50;;;2.90;;
5612;SDS011;63463;53.586;9.928;2023-08-17T03:40:29;3.37;;;2.93;;
5612;SDS011;63463;53.586;9.928;2023-08-17T03:42:55;5.80;;;3.20;;
5612;SDS011;63463;53.586;9.928;2023-08-17T03:45:24;6.60;;;3.10;;
5612;SDS011;63463;53.586;9.928;2023-08-17T03:47:50;5.30;;;3.40;;
5612;SDS011;63463;53.586;9.928;2023-08-17T03:50:16;3.87;;;2.90;;
5612;SDS011;63463;53.586;9.928;2023-08-17T03:52:42;4.73;;;3.33;;
5612;SDS011;63463;53.586;9.928;2023-08-17T03:55:08;3.40;;;2.93;;
5612;SDS011;63463;53.586;9.928;2023-08-17T03:57:35;3.53;;;3.13;;
5612;SDS011;63463;53.586;9.928;2023-08-17T04:00:04;7.60;;;3.20;;
5612;SDS011;63463;53.586;9.928;2023-08-17T04:02:31;3.20;;;2.67;;
5612;SDS011;63463;53.586;9.928;2023-08-17T04:04:57;8.90;;;2.97;;
5612;SDS011;63463;53.586;9.928;2023-08-17T04:07:23;3.00;;;2.90;;
5612;SDS011;63463;53.586;9.928;2023-08-17T04:09:52;6.77;;;3.00;;
5612;SDS011;63463;53.586;9.928;2023-08-17T04:12:18;5.17;;;3.00;;
5612;SDS011;63463;53.586;9.928;2023-08-17T04:14:47;6.77;;;3.13;;
5612;SDS011;63463;53.586;9.928;2023-08-17T04:17:18;8.93;;;3.63;;
5612;SDS011;63463;53.586;9.928;2023-08-17T04:19:46;7.87;;;3.50;;
5612;SDS011;63463;53.586;9.928;2023-08-17T04:22:12;7.10;;;3.80;;
5612;SDS011;63463;53.586;9.928;2023-08-17T04:24:38;7.80;;;3.80;;
5612;SDS011;63463;53.586;9.928;2023-08-17T04:27:04;4.93;;;2.80;;
5612;SDS011;63463;53.586;9.928;2023-08-17T04:29:31;3.00;;;2.67;;
5612;SDS011;63463;53.586;9.928;2023-08-17T04:31:59;5.60;;;3.10;;
5612;SDS011;63463;53.586;9.928;2023-08-17T04:34:25;5.47;;;3.10;;
5612;SDS011;63463;53.586;9.928;2023-08-17T04:36:51;13.03;;;3.47;;
5612;SDS011;63463;53.586;9.928;2023-08-17T04:39:17;10.33;;;3.37;;
5612;SDS011;63463;53.586;9.928;2023-08-17T04:41:43;6.83;;;3.27;;
5612;SDS011;63463;53.586;9.928;2023-08-17T04:44:09;4.20;;;3.23;;
5612;SDS011;63463;53.586;9.928;2023-08-17T04:46:35;9.07;;;3.60;;
5612;SDS011;63463;53.586;9.928;2023-08-17T04:49:03;13.30;;;3.43;;
5612;SDS011;63463;53.586;9.928;2023-08-17T04:51:38;7.00;;;3.60;;
5612;SDS011;63463;53.586;9.928;2023-08-17T04:54:06;4.13;;;3.73;;
5612;SDS011;63463;53.586;9.928;2023-08-17T04:56:32;8.87;;;3.67;;
5612;SDS011;63463;53.586;9.928;2023-08-17T04:59:02;8.23;;;3.40;;
5612;SDS011;63463;53.586;9.928;2023-08-17T05:01:28;7.70;;;3.77;;
5612;SDS011;63463;53.586;9.928;2023-08-17T05:03:54;9.00;;;3.47;;
5612;SDS011;63463;53.586;9.928;2023-08-17T05:06:20;8.47;;;3.40;;
5612;SDS011;63463;53.586;9.928;2023-08-17T05:08:46;10.80;;;4.10;;
5612;SDS011;63463;53.586;9.928;2023-08-17T05:11:13;9.17;;;4.20;;
5612;SDS011;63463;53.586;9.928;2023-08-17T05:13:39;6.80;;;3.83;;
5612;SDS011;63463;53.586;9.928;2023-08-17T05:16:05;5.43;;;3.57;;
5612;SDS011;63463;53.586;9.928;2023-08-17T05:18:31;9.60;;;3.90;;
5612;SDS011;63463;53.586;9.928;2023-08-17T05:21:01;7.50;;;3.53;;
5612;SDS011;63463;53.586;9.928;2023-08-17T05:23:28;7.50;;;3.70;;
5612;SDS011;63463;53.586;9.928;2023-08-17T05:25:57;11.73;;;4.10;;
5612;SDS011;63463;53.586;9.928;2023-08-17T05:28:24;4.40;;;3.97;;
5612;SDS011;63463;53.586;9.928;2023-08-17T05:30:50;9.67;;;4.47;;
5612;SDS011;63463;53.586;9.928;2023-08-17T05:33:19;8.67;;;3.77;;
5612;SDS011;63463;53.586;9.928;2023-08-17T05:35:45;11.93;;;4.30;;
5612;SDS011;63463;53.586;9.928;2023-08-17T05:38:11;7.87;;;4.57;;
5612;SDS011;63463;53.586;9.928;2023-08-17T05:40:37;7.13;;;4.20;;
5612;SDS011;63463;53.586;9.928;2023-08-17T05:43:03;6.90;;;4.50;;
5612;SDS011;63463;53.586;9.928;2023-08-17T05:45:30;7.50;;;4.47;;
5612;SDS011;63463;53.586;9.928;2023-08-17T05:47:56;12.53;;;4.50;;
5612;SDS011;63463;53.586;9.928;2023-08-17T05:50:23;4.67;;;4.30;;
5612;SDS011;63463;53.586;9.928;2023-08-17T05:52:50;6.20;;;5.00;;
5612;SDS011;63463;53.586;9.928;2023-08-17T05:55:18;11.47;;;4.17;;
5612;SDS011;63463;53.586;9.928;2023-08-17T05:57:44;12.00;;;5.30;;
5612;SDS011;63463;53.586;9.928;2023-08-17T06:00:10;8.33;;;5.40;;
5612;SDS011;63463;53.586;9.928;2023-08-17T06:02:40;8.93;;;5.13;;
5612;SDS011;63463;53.586;9.928;2023-08-17T06:05:06;9.70;;;5.40;;
5612;SDS011;63463;53.586;9.928;2023-08-17T06:07:34;10.60;;;4.83;;
5612;SDS011;63463;53.586;9.928;2023-08-17T06:10:02;12.67;;;5.67;;
5612;SDS011;63463;53.586;9.928;2023-08-17T06:12:31;11.73;;;5.80;;
5612;SDS011;63463;53.586;9.928;2023-08-17T06:15:01;8.53;;;5.90;;
5612;SDS011;63463;53.586;9.928;2023-08-17T06:17:33;17.00;;;6.13;;
5612;SDS011;63463;53.586;9.928;2023-08-17T06:20:05;12.63;;;6.17;;
5612;SDS011;63463;53.586;9.928;2023-08-17T06:22:35;17.30;;;6.03;;
5612;SDS011;63463;53.586;9.928;2023-08-17T06:25:02;9.90;;;6.10;;
5612;SDS011;63463;53.586;9.928;2023-08-17T06:27:30;13.17;;;6.20;;
5612;SDS011;63463;53.586;9.928;2023-08-17T06:29:56;14.60;;;6.50;;
5612;SDS011;63463;53.586;9.928;2023-08-17T06:32:22;10.83;;;6.50;;
5612;SDS011;63463;53.586;9.928;2023-08-17T06:34:48;9.83;;;6.13;;
5612;SDS011;63463;53.586;9.928;2023-08-17T06:38:04;11.63;;;7.07;;
5612;SDS011;63463;53.586;9.928;2023-08-17T06:40:21;20.70;;;6.93;;
5612;SDS011;63463;53.586;9.928;2023-08-17T06:42:49;13.93;;;5.77;;
5612;SDS011;63463;53.586;9.928;2023-08-17T06:45:15;15.70;;;7.00;;
5612;SDS011;63463;53.586;9.928;2023-08-17T06:47:43;22.70;;;6.73;;
5612;SDS011;63463;53.586;9.928;2023-08-17T06:50:16;10.40;;;6.67;;
5612;SDS011;63463;53.586;9.928;2023-08-17T06:55:52;16.17;;;7.70;;
5612;SDS011;63463;53.586;9.928;2023-08-17T06:58:30;18.73;;;7.20;;
5612;SDS011;63463;53.586;9.928;2023-08-17T07:01:07;24.23;;;7.10;;
5612;SDS011;63463;53.586;9.928;2023-08-17T07:03:33;22.53;;;6.87;;
5612;SDS011;63463;53.586;9.928;2023-08-17T07:05:59;20.30;;;8.23;;
5612;SDS011;63463;53.586;9.928;2023-08-17T07:08:38;24.93;;;7.30;;
5612;SDS011;63463;53.586;9.928;2023-08-17T07:11:18;30.90;;;7.80;;
5612;SDS011;63463;53.586;9.928;2023-08-17T07:13:44;11.87;;;6.70;;
5612;SDS011;63463;53.586;9.928;2023-08-17T07:16:10;24.03;;;7.17;;
5612;SDS011;63463;53.586;9.928;2023-08-17T07:18:36;13.33;;;6.90;;
5612;SDS011;63463;53.586;9.928;2023-08-17T07:21:02;16.83;;;6.80;;
5612;SDS011;63463;53.586;9.928;2023-08-17T07:23:31;14.60;;;7.50;;
5612;SDS011;63463;53.586;9.928;2023-08-17T07:25:59;13.40;;;6.13;;
5612;SDS011;63463;53.586;9.928;2023-08-17T07:28:26;13.80;;;6.40;;
5612;SDS011;63463;53.586;9.928;2023-08-17T07:31:18;10.73;;;7.07;;
5612;SDS011;63463;53.586;9.928;2023-08-17T07:33:46;13.97;;;6.83;;
5612;SDS011;63463;53.586;9.928;2023-08-17T07:36:15;21.80;;;6.87;;
5612;SDS011;63463;53.586;9.928;2023-08-17T07:38:41;18.30;;;7.53;;
5612;SDS011;63463;53.586;9.928;2023-08-17T07:41:07;8.63;;;6.30;;
5612;SDS011;63463;53.586;9.928;2023-08-17T07:43:39;17.10;;;6.70;;
5612;SDS011;63463;53.586;9.928;2023-08-17T07:46:05;12.30;;;6.23;;
5612;SDS011;63463;53.586;9.928;2023-08-17T07:48:37;8.33;;;6.00;;
5612;SDS011;63463;53.586;9.928;2023-08-17T07:51:03;9.93;;;6.30;;
5612;SDS011;63463;53.586;9.928;2023-08-17T07:53:32;19.53;;;6.57;;
5612;SDS011;63463;53.586;9.928;2023-08-17T07:55:58;16.80;;;6.60;;
5612;SDS011;63463;53.586;9.928;2023-08-17T07:58:24;14.97;;;6.77;;
5612;SDS011;63463;53.586;9.928;2023-08-17T08:00:50;13.63;;;6.40;;
5612;SDS011;63463;53.586;9.928;2023-08-17T08:03:17;11.00;;;7.60;;
5612;SDS011;63463;53.586;9.928;2023-08-17T08:05:43;10.30;;;7.30;;
5612;SDS011;63463;53.586;9.928;2023-08-17T08:14:19;9.80;;;7.03;;
5612;SDS011;63463;53.586;9.928;2023-08-17T08:19:55;14.07;;;7.93;;
5612;SDS011;63463;53.586;9.928;2023-08-17T08:22:23;15.53;;;7.87;;
5612;SDS011;63463;53.586;9.928;2023-08-17T08:24:49;21.63;;;8.80;;
5612;SDS011;63463;53.586;9.928;2023-08-17T08:27:18;20.77;;;8.30;;
5612;SDS011;63463;53.586;9.928;2023-08-17T08:29:44;15.10;;;8.90;;
5612;SDS011;63463;53.586;9.928;2023-08-17T08:32:10;23.57;;;8.60;;
5612;SDS011;63463;53.586;9.928;2023-08-17T08:34:37;11.33;;;7.00;;
5612;SDS011;63463;53.586;9.928;2023-08-17T08:37:04;12.40;;;7.03;;
5612;SDS011;63463;53.586;9.928;2023-08-17T08:39:32;13.20;;;7.63;;
5612;SDS011;63463;53.586;9.928;2023-08-17T08:42:04;20.50;;;7.63;;
5612;SDS011;63463;53.586;9.928;2023-08-17T08:44:30;16.23;;;7.30;;
5612;SDS011;63463;53.586;9.928;2023-08-17T08:46:56;10.87;;;6.10;;
5612;SDS011;63463;53.586;9.928;2023-08-17T08:49:23;16.40;;;6.37;;
5612;SDS011;63463;53.586;9.928;2023-08-17T08:51:50;7.97;;;6.30;;
5612;SDS011;63463;53.586;9.928;2023-08-17T08:54:24;8.30;;;6.13;;
5612;SDS011;63463;53.586;9.928;2023-08-17T08:56:51;9.07;;;6.10;;
5612;SDS011;63463;53.586;9.928;2023-08-17T08:59:21;9.20;;;5.93;;
5612;SDS011;63463;53.586;9.928;2023-08-17T09:01:49;6.67;;;5.63;;
5612;SDS011;63463;53.586;9.928;2023-08-17T09:04:18;12.10;;;6.67;;
5612;SDS011;63463;53.586;9.928;2023-08-17T09:06:47;11.43;;;6.63;;
5612;SDS011;63463;53.586;9.928;2023-08-17T09:09:16;7.30;;;5.73;;
5612;SDS011;63463;53.586;9.928;2023-08-17T09:11:45;24.63;;;7.30;;
5612;SDS011;63463;53.586;9.928;2023-08-17T09:14:11;9.40;;;6.37;;
5612;SDS011;63463;53.586;9.928;2023-08-17T09:16:40;12.13;;;6.70;;
5612;SDS011;63463;53.586;9.928;2023-08-17T09:19:06;14.83;;;7.60;;
5612;SDS011;63463;53.586;9.928;2023-08-17T09:21:32;7.70;;;6.20;;
5612;SDS011;63463;53.586;9.928;2023-08-17T09:23:58;6.60;;;5.87;;
5612;SDS011;63463;53.586;9.928;2023-08-17T09:26:30;13.63;;;5.93;;
5612;SDS011;63463;53.586;9.928;2023-08-17T09:28:59;8.07;;;6.20;;
5612;SDS011;63463;53.586;9.928;2023-08-17T09:31:30;8.90;;;5.83;;
5612;SDS011;63463;53.586;9.928;2023-08-17T09:33:57;9.20;;;6.50;;
5612;SDS011;63463;53.586;9.928;2023-08-17T09:36:25;7.77;;;6.00;;
5612;SDS011;63463;53.586;9.928;2023-08-17T09:38:54;6.00;;;5.27;;
5612;SDS011;63463;53.586;9.928;2023-08-17T09:41:24;13.07;;;6.17;;
5612;SDS011;63463;53.586;9.928;2023-08-17T09:43:50;7.77;;;5.97;;
5612;SDS011;63463;53.586;9.928;2023-08-17T09:46:17;7.07;;;5.60;;
5612;SDS011;63463;53.586;9.928;2023-08-17T09:48:46;6.40;;;5.10;;
5612;SDS011;63463;53.586;9.928;2023-08-17T09:51:17;6.20;;;5.60;;
5612;SDS011;63463;53.586;9.928;2023-08-17T09:53:51;7.57;;;6.27;;
5612;SDS011;63463;53.586;9.928;2023-08-17T09:56:18;8.10;;;6.07;;
5612;SDS011;63463;53.586;9.928;2023-08-17T09:58:45;9.70;;;5.87;;
5612;SDS011;63463;53.586;9.928;2023-08-17T10:01:15;6.10;;;5.00;;
5612;SDS011;63463;53.586;9.928;2023-08-17T10:03:53;13.03;;;5.67;;
5612;SDS011;63463;53.586;9.928;2023-08-17T10:06:22;5.37;;;4.17;;
5612;SDS011;63463;53.586;9.928;2023-08-17T10:08:54;5.17;;;3.40;;
5612;SDS011;63463;53.586;9.928;2023-08-17T10:11:22;6.30;;;4.00;;
5612;SDS011;63463;53.586;9.928;2023-08-17T10:13:54;4.93;;;4.20;;
5612;SDS011;63463;53.586;9.928;2023-08-17T10:16:33;5.27;;;4.73;;
5612;SDS011;63463;53.586;9.928;2023-08-17T10:19:05;6.80;;;4.27;;
5612;SDS011;63463;53.586;9.928;2023-08-17T10:21:46;9.63;;;5.60;;
5612;SDS011;63463;53.586;9.928;2023-08-17T10:27:40;4.60;;;4.30;;
5612;SDS011;63463;53.586;9.928;2023-08-17T10:30:15;9.70;;;4.60;;
5612;SDS011;63463;53.586;9.928;2023-08-17T10:32:45;5.00;;;4.50;;
5612;SDS011;63463;53.586;9.928;2023-08-17T10:35:13;7.80;;;4.67;;
5612;SDS011;63463;53.586;9.928;2023-08-17T10:37:40;3.73;;;3.40;;
5612;SDS011;63463;53.586;9.928;2023-08-17T10:40:12;4.33;;;3.93;;
5612;SDS011;63463;53.586;9.928;2023-08-17T10:42:41;4.20;;;3.80;;
5612;SDS011;63463;53.586;9.928;2023-08-17T10:47:59;4.40;;;4.00;;
5612;SDS011;63463;53.586;9.928;2023-08-17T10:50:28;4.07;;;3.87;;
5612;SDS011;63463;53.586;9.928;2023-08-17T10:52:54;4.10;;;3.70;;
5612;SDS011;63463;53.586;9.928;2023-08-17T10:55:44;5.73;;;3.60;;
5612;SDS011;63463;53.586;9.928;2023-08-17T10:58:10;5.03;;;3.87;;
5612;SDS011;63463;53.586;9.928;2023-08-17T11:00:44;3.83;;;3.53;;
5612;SDS011;63463;53.586;9.928;2023-08-17T11:03:25;3.67;;;3.20;;
5612;SDS011;63463;53.586;9.928;2023-08-17T11:05:53;8.73;;;3.47;;
5612;SDS011;63463;53.586;9.928;2023-08-17T11:08:33;4.60;;;3.70;;
5612;SDS011;63463;53.586;9.928;2023-08-17T11:11:13;4.13;;;3.70;;
5612;SDS011;63463;53.586;9.928;2023-08-17T11:13:45;3.90;;;3.70;;
5612;SDS011;63463;53.586;9.928;2023-08-17T11:16:22;4.53;;;3.73;;
5612;SDS011;63463;53.586;9.928;2023-08-17T11:18:48;3.70;;;3.40;;
5612;SDS011;63463;53.586;9.928;2023-08-17T11:21:15;4.07;;;3.80;;
5612;SDS011;63463;53.586;9.928;2023-08-17T11:23:42;4.37;;;3.90;;
5612;SDS011;63463;53.586;9.928;2023-08-17T11:35:55;7.00;;;4.63;;
5612;SDS011;63463;53.586;9.928;2023-08-17T11:38:23;5.00;;;4.10;;
5612;SDS011;63463;53.586;9.928;2023-08-17T11:41:12;4.50;;;4.10;;
5612;SDS011;63463;53.586;9.928;2023-08-17T11:43:41;6.53;;;4.70;;
5612;SDS011;63463;53.586;9.928;2023-08-17T11:46:08;13.63;;;6.60;;
5612;SDS011;63463;53.586;9.928;2023-08-17T11:48:40;7.60;;;5.00;;
5612;SDS011;63463;53.586;9.928;2023-08-17T11:51:38;6.10;;;5.37;;
5612;SDS011;63463;53.586;9.928;2023-08-17T11:54:07;6.20;;;5.00;;
5612;SDS011;63463;53.586;9.928;2023-08-17T11:56:39;5.50;;;5.10;;
5612;SDS011;63463;53.586;9.928;2023-08-17T11:59:49;7.50;;;5.40;;
5612;SDS011;63463;53.586;9.928;2023-08-17T12:02:01;6.20;;;5.60;;
5612;SDS011;63463;53.586;9.928;2023-08-17T12:04:31;14.30;;;6.20;;
5612;SDS011;63463;53.586;9.928;2023-08-17T12:07:14;9.07;;;6.70;;
5612;SDS011;63463;53.586;9.928;2023-08-17T12:09:44;15.00;;;6.40;;
5612;SDS011;63463;53.586;9.928;2023-08-17T12:18:33;8.87;;;7.33;;
5612;SDS011;63463;53.586;9.928;2023-08-17T12:21:05;13.57;;;7.93;;
5612;SDS011;63463;53.586;9.928;2023-08-17T12:23:32;15.17;;;7.43;;
5612;SDS011;63463;53.586;9.928;2023-08-17T12:25:59;7.60;;;6.57;;
5612;SDS011;63463;53.586;9.928;2023-08-17T12:28:26;10.03;;;6.90;;
5612;SDS011;63463;53.586;9.928;2023-08-17T12:31:02;10.83;;;7.90;;
5612;SDS011;63463;53.586;9.928;2023-08-17T12:33:29;19.03;;;7.67;;
5612;SDS011;63463;53.586;9.928;2023-08-17T12:35:56;6.90;;;6.20;;
5612;SDS011;63463;53.586;9.928;2023-08-17T12:38:25;8.07;;;6.77;;
5612;SDS011;63463;53.586;9.928;2023-08-17T12:40:52;14.83;;;7.27;;
5612;SDS011;63463;53.586;9.928;2023-08-17T12:43:18;9.33;;;7.07;;
5612;SDS011;63463;53.586;9.928;2023-08-17T12:45:44;11.50;;;7.10;;
5612;SDS011;63463;53.586;9.928;2023-08-17T12:48:10;10.67;;;6.00;;
5612;SDS011;63463;53.586;9.928;2023-08-17T12:50:38;7.07;;;6.00;;
5612;SDS011;63463;53.586;9.928;2023-08-17T12:56:04;9.40;;;6.10;;
5612;SDS011;63463;53.586;9.928;2023-08-17T12:58:32;6.10;;;5.50;;
5612;SDS011;63463;53.586;9.928;2023-08-17T13:01:02;5.77;;;5.27;;
5612;SDS011;63463;53.586;9.928;2023-08-17T13:03:33;6.80;;;5.97;;
5612;SDS011;63463;53.586;9.928;2023-08-17T13:05:59;7.07;;;5.30;;
5612;SDS011;63463;53.586;9.928;2023-08-17T13:08:27;8.00;;;5.50;;
5612;SDS011;63463;53.586;9.928;2023-08-17T13:10:55;7.90;;;5.40;;
5612;SDS011;63463;53.586;9.928;2023-08-17T13:13:21;6.83;;;6.13;;
5612;SDS011;63463;53.586;9.928;2023-08-17T13:15:47;9.20;;;5.27;;
5612;SDS011;63463;53.586;9.928;2023-08-17T13:18:13;8.37;;;5.30;;
5612;SDS011;63463;53.586;9.928;2023-08-17T13:20:42;7.97;;;5.50;;
5612;SDS011;63463;53.586;9.928;2023-08-17T13:23:09;5.60;;;5.20;;
5612;SDS011;63463;53.586;9.928;2023-08-17T13:25:36;8.20;;;5.80;;
5612;SDS011;63463;53.586;9.928;2023-08-17T13:28:02;6.70;;;5.30;;
5612;SDS011;63463;53.586;9.928;2023-08-17T13:30:35;8.20;;;5.70;;
5612;SDS011;63463;53.586;9.928;2023-08-17T13:35:50;7.33;;;6.00;;
5612;SDS011;63463;53.586;9.928;2023-08-17T13:38:43;5.13;;;4.63;;
5612;SDS011;63463;53.586;9.928;2023-08-17T13:41:10;3.87;;;3.57;;
5612;SDS011;63463;53.586;9.928;2023-08-17T13:43:36;3.10;;;2.90;;
5612;SDS011;63463;53.586;9.928;2023-08-17T13:46:06;3.10;;;2.90;;
5612;SDS011;63463;53.586;9.928;2023-08-17T13:48:33;3.20;;;3.00;;
5612;SDS011;63463;53.586;9.928;2023-08-17T13:50:59;2.97;;;2.87;;
5612;SDS011;63463;53.586;9.928;2023-08-17T13:53:25;3.10;;;2.90;;
5612;SDS011;63463;53.586;9.928;2023-08-17T13:55:51;2.87;;;2.73;;
5612;SDS011;63463;53.586;9.928;2023-08-17T13:58:23;3.30;;;3.10;;
5612;SDS011;63463;53.586;9.928;2023-08-17T14:00:50;5.13;;;2.90;;
5612;SDS011;63463;53.586;9.928;2023-08-17T14:03:34;3.10;;;2.87;;
5612;SDS011;63463;53.586;9.928;2023-08-17T14:06:01;2.93;;;2.77;;
5612;SDS011;63463;53.586;9.928;2023-08-17T14:20:22;4.03;;;3.00;;
5612;SDS011;63463;53.586;9.928;2023-08-17T14:22:48;3.00;;;2.90;;
5612;SDS011;63463;53.586;9.928;2023-08-17T14:25:14;3.20;;;3.00;;
5612;SDS011;63463;53.586;9.928;2023-08-17T14:27:43;4.70;;;2.63;;
5612;SDS011;63463;53.586;9.928;2023-08-17T14:30:18;3.73;;;2.80;;
5612;SDS011;63463;53.586;9.928;2023-08-17T14:32:45;3.20;;;3.00;;
5612;SDS011;63463;53.586;9.928;2023-08-17T14:35:16;3.00;;;2.90;;
5612;SDS011;63463;53.586;9.928;2023-08-17T14:37:45;3.80;;;3.50;;
5612;SDS011;63463;53.586;9.928;2023-08-17T14:40:11;2.97;;;2.87;;
5612;SDS011;63463;53.586;9.928;2023-08-17T14:42:45;3.00;;;2.90;;
5612;SDS011;63463;53.586;9.928;2023-08-17T14:48:21;3.07;;;2.80;;
5612;SDS011;63463;53.586;9.928;2023-08-17T14:50:47;4.13;;;3.10;;
5612;SDS011;63463;53.586;9.928;2023-08-17T14:53:17;3.50;;;2.70;;
5612;SDS011;63463;53.586;9.928;2023-08-17T14:55:43;8.00;;;3.50;;
5612;SDS011;63463;53.586;9.928;2023-08-17T14:58:09;2.67;;;2.57;;
5612;SDS011;63463;53.586;9.928;2023-08-17T15:00:35;2.83;;;2.73;;
5612;SDS011;63463;53.586;9.928;2023-08-17T15:03:01;4.27;;;2.63;;
5612;SDS011;63463;53.586;9.928;2023-08-17T15:05:27;3.70;;;2.87;;
5612;SDS011;63463;53.586;9.928;2023-08-17T15:07:53;2.80;;;2.70;;
5612;SDS011;63463;53.586;9.928;2023-08-17T15:10:19;2.90;;;2.77;;
5612;SDS011;63463;53.586;9.928;2023-08-17T15:12:46;2.87;;;2.77;;
5612;SDS011;63463;53.586;9.928;2023-08-17T15:15:12;4.70;;;2.80;;
5612;SDS011;63463;53.586;9.928;2023-08-17T15:17:40;3.43;;;2.80;;
5612;SDS011;63463;53.586;9.928;2023-08-17T15:20:06;3.10;;;2.90;;
5612;SDS011;63463;53.586;9.928;2023-08-17T15:22:32;4.13;;;3.40;;
5612;SDS011;63463;53.586;9.928;2023-08-17T15:24:59;3.77;;;3.47;;
5612;SDS011;63463;53.586;9.928;2023-08-17T15:27:25;5.97;;;3.53;;
5612;SDS011;63463;53.586;9.928;2023-08-17T15:29:52;4.10;;;3.50;;
5612;SDS011;63463;53.586;9.928;2023-08-17T15:32:18;5.07;;;4.03;;
5612;SDS011;63463;53.586;9.928;2023-08-17T15:34:47;4.13;;;3.80;;
5612;SDS011;63463;53.586;9.928;2023-08-17T15:37:12;9.90;;;3.63;;
5612;SDS011;63463;53.586;9.928;2023-08-17T15:39:39;3.93;;;3.63;;
5612;SDS011;63463;53.586;9.928;2023-08-17T15:42:05;4.27;;;3.93;;
5612;SDS011;63463;53.586;9.928;2023-08-17T15:44:31;3.70;;;3.50;;
5612;SDS011;63463;53.586;9.928;2023-08-17T15:46:57;4.87;;;4.23;;
5612;SDS011;63463;53.586;9.928;2023-08-17T15:49:23;5.77;;;3.70;;
5612;SDS011;63463;53.586;9.928;2023-08-17T15:51:49;4.33;;;3.77;;
5612;SDS011;63463;53.586;9.928;2023-08-17T15:54:15;5.50;;;3.43;;
5612;SDS011;63463;53.586;9.928;2023-08-17T15:56:41;4.10;;;3.80;;
5612;SDS011;63463;53.586;9.928;2023-08-17T15:59:07;5.40;;;4.10;;
5612;SDS011;63463;53.586;9.928;2023-08-17T16:01:33;10.03;;;4.17;;
5612;SDS011;63463;53.586;9.928;2023-08-17T16:03:59;5.97;;;4.20;;
5612;SDS011;63463;53.586;9.928;2023-08-17T16:06:25;4.47;;;4.17;;
5612;SDS011;63463;53.586;9.928;2023-08-17T16:08:51;4.63;;;4.20;;